sensor_id;sensor_type;location;lat;lon;timestamp;P1;durP1;ratioP1;P2;durP2;ratioP2
781;SDS011;374;52.568;13.402;2023-02-27T00:01:31;6.97;;;3.37;;
781;SDS011;374;52.568;13.402;2023-02-27T00:03:58;5.30;;;3.93;;
781;SDS011;374;52.568;13.402;2023-02-27T00:06:24;3.73;;;3.23;;
781;SDS011;374;52.568;13.402;2023-02-27T00:08:50;5.80;;;3.63;;
781;SDS011;374;52.568;13.402;2023-02-27T00:11:15;3.60;;;3.30;;
781;SDS011;374;52.568;13.402;2023-02-27T00:13:41;6.20;;;4.07;;
781;SDS011;374;52.568;13.402;2023-02-27T00:16:07;4.20;;;2.83;;
781;SDS011;374;52.568;13.402;2023-02-27T00:18:32;3.97;;;3.57;;
781;SDS011;374;52.568;13.402;2023-02-27T00:20:58;5.73;;;3.87;;
781;SDS011;374;52.568;13.402;2023-02-27T00:23:23;4.20;;;3.20;;
781;SDS011;374;52.568;13.402;2023-02-27T00:25:48;5.87;;;3.73;;
781;SDS011;374;52.568;13.402;2023-02-27T00:28:16;6.10;;;4.03;;
781;SDS011;374;52.568;13.402;2023-02-27T00:30:41;6.10;;;3.53;;
781;SDS011;374;52.568;13.402;2023-02-27T00:33:07;5.30;;;3.83;;
781;SDS011;374;52.568;13.402;2023-02-27T00:35:32;4.23;;;3.53;;
781;SDS011;374;52.568;13.402;2023-02-27T00:37:58;3.70;;;2.80;;
781;SDS011;374;52.568;13.402;2023-02-27T00:40:24;4.57;;;4.10;;
781;SDS011;374;52.568;13.402;2023-02-27T00:42:50;3.67;;;3.37;;
781;SDS011;374;52.568;13.402;2023-02-27T00:45:16;3.27;;;2.97;;
781;SDS011;374;52.568;13.402;2023-02-27T00:47:41;3.93;;;3.63;;
781;SDS011;374;52.568;13.402;2023-02-27T00:50:07;4.83;;;3.77;;
781;SDS011;374;52.568;13.402;2023-02-27T00:52:33;3.47;;;3.20;;
781;SDS011;374;52.568;13.402;2023-02-27T00:54:59;5.80;;;3.53;;
781;SDS011;374;52.568;13.402;2023-02-27T00:57:25;4.70;;;4.30;;
781;SDS011;374;52.568;13.402;2023-02-27T00:59:51;4.00;;;3.60;;
781;SDS011;374;52.568;13.402;2023-02-27T01:02:16;4.47;;;3.13;;
781;SDS011;374;52.568;13.402;2023-02-27T01:04:42;4.60;;;3.30;;
781;SDS011;374;52.568;13.402;2023-02-27T01:07:07;4.37;;;3.80;;
781;SDS011;374;52.568;13.402;2023-02-27T01:09:33;4.60;;;3.53;;
781;SDS011;374;52.568;13.402;2023-02-27T01:11:59;4.73;;;3.90;;
781;SDS011;374;52.568;13.402;2023-02-27T01:14:24;4.50;;;3.40;;
781;SDS011;374;52.568;13.402;2023-02-27T01:16:50;4.63;;;3.57;;
781;SDS011;374;52.568;13.402;2023-02-27T01:19:16;3.47;;;3.17;;
781;SDS011;374;52.568;13.402;2023-02-27T01:21:41;4.67;;;3.57;;
781;SDS011;374;52.568;13.402;2023-02-27T01:24:08;3.63;;;3.30;;
781;SDS011;374;52.568;13.402;2023-02-27T01:26:34;6.30;;;3.70;;
781;SDS011;374;52.568;13.402;2023-02-27T01:28:59;5.23;;;3.97;;
781;SDS011;374;52.568;13.402;2023-02-27T01:31:25;5.07;;;4.03;;
781;SDS011;374;52.568;13.402;2023-02-27T01:33:50;4.80;;;4.10;;
781;SDS011;374;52.568;13.402;2023-02-27T01:36:15;4.70;;;3.93;;
781;SDS011;374;52.568;13.402;2023-02-27T01:38:41;4.07;;;3.77;;
781;SDS011;374;52.568;13.402;2023-02-27T01:41:07;5.43;;;4.57;;
781;SDS011;374;52.568;13.402;2023-02-27T01:43:33;3.77;;;3.30;;
781;SDS011;374;52.568;13.402;2023-02-27T01:45:58;3.37;;;3.07;;
781;SDS011;374;52.568;13.402;2023-02-27T01:48:29;4.10;;;3.33;;
781;SDS011;374;52.568;13.402;2023-02-27T01:51:00;5.93;;;3.50;;
781;SDS011;374;52.568;13.402;2023-02-27T01:53:30;5.27;;;3.80;;
781;SDS011;374;52.568;13.402;2023-02-27T01:55:59;3.07;;;2.87;;
781;SDS011;374;52.568;13.402;2023-02-27T01:58:47;4.83;;;3.03;;
781;SDS011;374;52.568;13.402;2023-02-27T02:01:14;6.53;;;3.83;;
781;SDS011;374;52.568;13.402;2023-02-27T02:03:48;4.53;;;3.80;;
781;SDS011;374;52.568;13.402;2023-02-27T02:06:36;3.20;;;2.93;;
781;SDS011;374;52.568;13.402;2023-02-27T02:09:04;3.00;;;2.80;;
781;SDS011;374;52.568;13.402;2023-02-27T02:11:30;5.37;;;3.93;;
781;SDS011;374;52.568;13.402;2023-02-27T02:13:57;6.73;;;3.27;;
781;SDS011;374;52.568;13.402;2023-02-27T02:22:28;3.03;;;2.77;;
781;SDS011;374;52.568;13.402;2023-02-27T02:28:15;3.00;;;2.73;;
781;SDS011;374;52.568;13.402;2023-02-27T02:30:59;5.33;;;3.30;;
781;SDS011;374;52.568;13.402;2023-02-27T02:39:28;5.47;;;3.40;;
781;SDS011;374;52.568;13.402;2023-02-27T02:42:17;3.40;;;2.70;;
781;SDS011;374;52.568;13.402;2023-02-27T02:55:34;3.67;;;2.57;;
781;SDS011;374;52.568;13.402;2023-02-27T02:58:09;2.40;;;2.20;;
781;SDS011;374;52.568;13.402;2023-02-27T03:00:47;6.10;;;2.60;;
781;SDS011;374;52.568;13.402;2023-02-27T03:03:30;3.40;;;2.87;;
781;SDS011;374;52.568;13.402;2023-02-27T03:06:02;2.93;;;2.67;;
781;SDS011;374;52.568;13.402;2023-02-27T03:08:42;3.37;;;3.07;;
781;SDS011;374;52.568;13.402;2023-02-27T03:11:12;3.50;;;3.10;;
781;SDS011;374;52.568;13.402;2023-02-27T03:16:24;3.03;;;2.80;;
781;SDS011;374;52.568;13.402;2023-02-27T03:21:45;6.23;;;2.93;;
781;SDS011;374;52.568;13.402;2023-02-27T03:24:19;5.17;;;2.83;;
781;SDS011;374;52.568;13.402;2023-02-27T03:26:52;2.50;;;2.30;;
781;SDS011;374;52.568;13.402;2023-02-27T03:29:25;2.87;;;2.63;;
781;SDS011;374;52.568;13.402;2023-02-27T03:32:03;4.07;;;2.80;;
781;SDS011;374;52.568;13.402;2023-02-27T03:34:37;4.23;;;3.00;;
781;SDS011;374;52.568;13.402;2023-02-27T03:37:26;4.40;;;3.13;;
781;SDS011;374;52.568;13.402;2023-02-27T03:42:45;3.90;;;3.50;;
781;SDS011;374;52.568;13.402;2023-02-27T03:48:06;3.50;;;3.20;;
781;SDS011;374;52.568;13.402;2023-02-27T03:50:33;5.63;;;3.37;;
781;SDS011;374;52.568;13.402;2023-02-27T03:53:00;4.40;;;3.27;;
781;SDS011;374;52.568;13.402;2023-02-27T03:55:29;3.10;;;2.80;;
781;SDS011;374;52.568;13.402;2023-02-27T03:57:58;4.80;;;3.20;;
781;SDS011;374;52.568;13.402;2023-02-27T04:00:24;7.07;;;3.63;;
781;SDS011;374;52.568;13.402;2023-02-27T04:02:51;3.50;;;2.93;;
781;SDS011;374;52.568;13.402;2023-02-27T04:05:18;5.53;;;4.00;;
781;SDS011;374;52.568;13.402;2023-02-27T04:13:17;4.07;;;3.40;;
781;SDS011;374;52.568;13.402;2023-02-27T04:16:21;5.73;;;3.63;;
781;SDS011;374;52.568;13.402;2023-02-27T04:24:59;5.63;;;3.17;;
781;SDS011;374;52.568;13.402;2023-02-27T04:32:51;5.00;;;3.10;;
781;SDS011;374;52.568;13.402;2023-02-27T04:35:24;4.27;;;3.67;;
781;SDS011;374;52.568;13.402;2023-02-27T04:37:57;4.10;;;3.80;;
781;SDS011;374;52.568;13.402;2023-02-27T04:40:44;3.80;;;3.40;;
781;SDS011;374;52.568;13.402;2023-02-27T04:43:14;12.93;;;3.90;;
781;SDS011;374;52.568;13.402;2023-02-27T04:45:41;3.37;;;3.17;;
781;SDS011;374;52.568;13.402;2023-02-27T04:48:22;3.87;;;3.57;;
781;SDS011;374;52.568;13.402;2023-02-27T04:50:54;4.10;;;3.70;;
781;SDS011;374;52.568;13.402;2023-02-27T04:53:25;3.70;;;3.10;;
781;SDS011;374;52.568;13.402;2023-02-27T04:56:06;4.80;;;3.30;;
781;SDS011;374;52.568;13.402;2023-02-27T04:58:38;3.77;;;3.40;;
781;SDS011;374;52.568;13.402;2023-02-27T05:01:15;3.20;;;2.90;;
781;SDS011;374;52.568;13.402;2023-02-27T05:03:49;5.10;;;3.33;;
781;SDS011;374;52.568;13.402;2023-02-27T05:06:17;6.33;;;3.90;;
781;SDS011;374;52.568;13.402;2023-02-27T05:12:00;5.27;;;3.07;;
781;SDS011;374;52.568;13.402;2023-02-27T05:14:55;3.67;;;2.90;;
781;SDS011;374;52.568;13.402;2023-02-27T05:17:30;3.43;;;3.13;;
781;SDS011;374;52.568;13.402;2023-02-27T05:20:00;4.93;;;3.20;;
781;SDS011;374;52.568;13.402;2023-02-27T05:22:32;9.23;;;3.80;;
781;SDS011;374;52.568;13.402;2023-02-27T05:25:09;4.77;;;3.37;;
781;SDS011;374;52.568;13.402;2023-02-27T05:28:29;3.73;;;3.43;;
781;SDS011;374;52.568;13.402;2023-02-27T05:30:30;4.70;;;3.80;;
781;SDS011;374;52.568;13.402;2023-02-27T05:33:01;4.00;;;3.00;;
781;SDS011;374;52.568;13.402;2023-02-27T05:38:16;4.17;;;2.90;;
781;SDS011;374;52.568;13.402;2023-02-27T05:41:02;3.07;;;2.87;;
781;SDS011;374;52.568;13.402;2023-02-27T05:43:52;4.93;;;4.00;;
781;SDS011;374;52.568;13.402;2023-02-27T05:46:26;5.33;;;3.70;;
781;SDS011;374;52.568;13.402;2023-02-27T05:49:00;5.17;;;3.60;;
781;SDS011;374;52.568;13.402;2023-02-27T05:51:34;6.33;;;3.70;;
781;SDS011;374;52.568;13.402;2023-02-27T05:54:02;6.47;;;3.60;;
781;SDS011;374;52.568;13.402;2023-02-27T05:56:34;4.30;;;3.60;;
781;SDS011;374;52.568;13.402;2023-02-27T05:59:03;4.10;;;3.70;;
781;SDS011;374;52.568;13.402;2023-02-27T06:01:35;5.50;;;3.30;;
781;SDS011;374;52.568;13.402;2023-02-27T06:04:00;3.80;;;3.50;;
781;SDS011;374;52.568;13.402;2023-02-27T06:06:26;6.40;;;4.33;;
781;SDS011;374;52.568;13.402;2023-02-27T06:08:54;5.30;;;3.93;;
781;SDS011;374;52.568;13.402;2023-02-27T06:11:20;9.13;;;4.20;;
781;SDS011;374;52.568;13.402;2023-02-27T06:13:45;4.17;;;3.77;;
781;SDS011;374;52.568;13.402;2023-02-27T06:16:11;5.53;;;3.47;;
781;SDS011;374;52.568;13.402;2023-02-27T06:18:38;4.03;;;3.63;;
781;SDS011;374;52.568;13.402;2023-02-27T06:21:04;5.10;;;3.77;;
781;SDS011;374;52.568;13.402;2023-02-27T06:23:29;4.13;;;3.73;;
781;SDS011;374;52.568;13.402;2023-02-27T06:25:55;3.90;;;3.53;;
781;SDS011;374;52.568;13.402;2023-02-27T06:28:20;3.20;;;2.90;;
781;SDS011;374;52.568;13.402;2023-02-27T06:30:46;11.43;;;3.63;;
781;SDS011;374;52.568;13.402;2023-02-27T06:33:11;6.83;;;3.53;;
781;SDS011;374;52.568;13.402;2023-02-27T06:35:37;5.60;;;3.90;;
781;SDS011;374;52.568;13.402;2023-02-27T06:38:03;4.13;;;3.73;;
781;SDS011;374;52.568;13.402;2023-02-27T06:40:29;6.63;;;4.50;;
781;SDS011;374;52.568;13.402;2023-02-27T06:42:54;5.17;;;4.47;;
781;SDS011;374;52.568;13.402;2023-02-27T06:45:20;5.67;;;3.60;;
781;SDS011;374;52.568;13.402;2023-02-27T06:47:48;4.97;;;3.87;;
781;SDS011;374;52.568;13.402;2023-02-27T06:50:13;4.77;;;3.90;;
781;SDS011;374;52.568;13.402;2023-02-27T06:52:39;8.33;;;4.20;;
781;SDS011;374;52.568;13.402;2023-02-27T06:55:05;6.17;;;4.63;;
781;SDS011;374;52.568;13.402;2023-02-27T06:57:31;7.13;;;4.67;;
781;SDS011;374;52.568;13.402;2023-02-27T06:59:57;8.73;;;5.40;;
781;SDS011;374;52.568;13.402;2023-02-27T07:02:22;7.13;;;5.07;;
781;SDS011;374;52.568;13.402;2023-02-27T07:04:49;5.47;;;4.90;;
781;SDS011;374;52.568;13.402;2023-02-27T07:07:15;6.47;;;5.23;;
781;SDS011;374;52.568;13.402;2023-02-27T07:09:40;6.50;;;4.87;;
781;SDS011;374;52.568;13.402;2023-02-27T07:12:06;5.20;;;4.33;;
781;SDS011;374;52.568;13.402;2023-02-27T07:14:32;9.20;;;4.60;;
781;SDS011;374;52.568;13.402;2023-02-27T07:16:57;10.17;;;4.83;;
781;SDS011;374;52.568;13.402;2023-02-27T07:19:27;6.97;;;5.33;;
781;SDS011;374;52.568;13.402;2023-02-27T07:21:52;5.20;;;4.70;;
781;SDS011;374;52.568;13.402;2023-02-27T07:24:18;7.77;;;5.60;;
781;SDS011;374;52.568;13.402;2023-02-27T07:26:44;6.63;;;4.83;;
781;SDS011;374;52.568;13.402;2023-02-27T07:29:09;8.23;;;5.07;;
781;SDS011;374;52.568;13.402;2023-02-27T07:31:35;6.70;;;4.93;;
781;SDS011;374;52.568;13.402;2023-02-27T07:34:01;8.73;;;5.67;;
781;SDS011;374;52.568;13.402;2023-02-27T07:36:26;5.63;;;4.90;;
781;SDS011;374;52.568;13.402;2023-02-27T07:38:52;7.50;;;4.73;;
781;SDS011;374;52.568;13.402;2023-02-27T07:41:18;8.47;;;5.10;;
781;SDS011;374;52.568;13.402;2023-02-27T07:43:43;5.97;;;4.90;;
781;SDS011;374;52.568;13.402;2023-02-27T07:46:09;5.90;;;4.87;;
781;SDS011;374;52.568;13.402;2023-02-27T07:48:37;5.87;;;4.30;;
781;SDS011;374;52.568;13.402;2023-02-27T07:51:04;9.57;;;5.00;;
781;SDS011;374;52.568;13.402;2023-02-27T07:53:30;7.63;;;4.80;;
781;SDS011;374;52.568;13.402;2023-02-27T07:55:55;15.17;;;9.50;;
781;SDS011;374;52.568;13.402;2023-02-27T07:58:21;8.43;;;7.63;;
781;SDS011;374;52.568;13.402;2023-02-27T08:00:46;10.20;;;5.93;;
781;SDS011;374;52.568;13.402;2023-02-27T08:03:12;9.70;;;8.10;;
781;SDS011;374;52.568;13.402;2023-02-27T08:05:37;7.67;;;6.60;;
781;SDS011;374;52.568;13.402;2023-02-27T08:08:03;7.23;;;6.30;;
781;SDS011;374;52.568;13.402;2023-02-27T08:10:28;6.90;;;5.70;;
781;SDS011;374;52.568;13.402;2023-02-27T08:12:54;6.50;;;5.03;;
781;SDS011;374;52.568;13.402;2023-02-27T08:15:19;10.43;;;6.20;;
781;SDS011;374;52.568;13.402;2023-02-27T08:17:45;8.10;;;5.87;;
781;SDS011;374;52.568;13.402;2023-02-27T08:20:11;7.50;;;6.00;;
781;SDS011;374;52.568;13.402;2023-02-27T08:22:38;5.30;;;4.80;;
781;SDS011;374;52.568;13.402;2023-02-27T08:25:05;7.43;;;5.43;;
781;SDS011;374;52.568;13.402;2023-02-27T08:27:33;6.47;;;5.13;;
781;SDS011;374;52.568;13.402;2023-02-27T08:29:58;5.90;;;4.70;;
781;SDS011;374;52.568;13.402;2023-02-27T08:32:24;9.93;;;5.10;;
781;SDS011;374;52.568;13.402;2023-02-27T08:34:50;7.87;;;5.80;;
781;SDS011;374;52.568;13.402;2023-02-27T08:37:15;11.33;;;5.20;;
781;SDS011;374;52.568;13.402;2023-02-27T08:39:41;9.70;;;5.60;;
781;SDS011;374;52.568;13.402;2023-02-27T08:42:06;7.83;;;5.10;;
781;SDS011;374;52.568;13.402;2023-02-27T08:44:32;10.87;;;7.17;;
781;SDS011;374;52.568;13.402;2023-02-27T08:46:58;8.27;;;5.37;;
781;SDS011;374;52.568;13.402;2023-02-27T08:49:24;9.80;;;5.60;;
781;SDS011;374;52.568;13.402;2023-02-27T08:51:50;9.10;;;6.10;;
781;SDS011;374;52.568;13.402;2023-02-27T08:54:16;8.70;;;6.13;;
781;SDS011;374;52.568;13.402;2023-02-27T08:56:42;6.27;;;4.87;;
781;SDS011;374;52.568;13.402;2023-02-27T08:59:08;9.30;;;4.93;;
781;SDS011;374;52.568;13.402;2023-02-27T09:01:33;8.40;;;4.73;;
781;SDS011;374;52.568;13.402;2023-02-27T09:04:00;8.47;;;4.77;;
781;SDS011;374;52.568;13.402;2023-02-27T09:06:29;7.30;;;4.67;;
781;SDS011;374;52.568;13.402;2023-02-27T09:08:56;6.37;;;4.27;;
781;SDS011;374;52.568;13.402;2023-02-27T09:11:22;8.40;;;4.70;;
781;SDS011;374;52.568;13.402;2023-02-27T09:13:48;6.00;;;4.87;;
781;SDS011;374;52.568;13.402;2023-02-27T09:16:15;5.47;;;4.97;;
781;SDS011;374;52.568;13.402;2023-02-27T09:18:41;5.70;;;4.93;;
781;SDS011;374;52.568;13.402;2023-02-27T09:21:06;6.17;;;4.53;;
781;SDS011;374;52.568;13.402;2023-02-27T09:23:32;7.00;;;5.20;;
781;SDS011;374;52.568;13.402;2023-02-27T09:25:57;8.00;;;4.63;;
781;SDS011;374;52.568;13.402;2023-02-27T09:28:23;6.03;;;5.10;;
781;SDS011;374;52.568;13.402;2023-02-27T09:30:48;6.93;;;5.67;;
781;SDS011;374;52.568;13.402;2023-02-27T09:33:14;6.47;;;4.53;;
781;SDS011;374;52.568;13.402;2023-02-27T09:35:39;9.73;;;5.70;;
781;SDS011;374;52.568;13.402;2023-02-27T09:38:05;7.17;;;5.40;;
781;SDS011;374;52.568;13.402;2023-02-27T09:40:31;6.17;;;4.93;;
781;SDS011;374;52.568;13.402;2023-02-27T09:43:06;7.60;;;5.37;;
781;SDS011;374;52.568;13.402;2023-02-27T09:45:34;6.10;;;5.50;;
781;SDS011;374;52.568;13.402;2023-02-27T09:48:07;8.07;;;5.27;;
781;SDS011;374;52.568;13.402;2023-02-27T09:50:53;8.43;;;5.30;;
781;SDS011;374;52.568;13.402;2023-02-27T09:53:24;7.90;;;5.17;;
781;SDS011;374;52.568;13.402;2023-02-27T09:55:51;6.47;;;5.20;;
781;SDS011;374;52.568;13.402;2023-02-27T10:01:24;6.90;;;5.13;;
781;SDS011;374;52.568;13.402;2023-02-27T10:04:03;8.73;;;5.10;;
781;SDS011;374;52.568;13.402;2023-02-27T10:06:44;9.33;;;5.13;;
781;SDS011;374;52.568;13.402;2023-02-27T10:14:41;20.07;;;4.70;;
781;SDS011;374;52.568;13.402;2023-02-27T10:17:25;6.70;;;5.33;;
781;SDS011;374;52.568;13.402;2023-02-27T10:19:54;7.57;;;4.83;;
781;SDS011;374;52.568;13.402;2023-02-27T10:22:26;6.60;;;5.57;;
781;SDS011;374;52.568;13.402;2023-02-27T10:25:00;5.97;;;4.70;;
781;SDS011;374;52.568;13.402;2023-02-27T10:27:31;5.13;;;4.20;;
781;SDS011;374;52.568;13.402;2023-02-27T10:32:42;6.43;;;4.97;;
781;SDS011;374;52.568;13.402;2023-02-27T10:35:25;4.23;;;3.60;;
781;SDS011;374;52.568;13.402;2023-02-27T10:38:00;12.10;;;7.27;;
781;SDS011;374;52.568;13.402;2023-02-27T10:40:30;5.70;;;4.23;;
781;SDS011;374;52.568;13.402;2023-02-27T10:42:59;7.03;;;5.13;;
781;SDS011;374;52.568;13.402;2023-02-27T10:45:26;10.63;;;5.07;;
781;SDS011;374;52.568;13.402;2023-02-27T10:47:51;5.10;;;3.73;;
781;SDS011;374;52.568;13.402;2023-02-27T10:50:28;6.80;;;3.70;;
781;SDS011;374;52.568;13.402;2023-02-27T10:52:57;3.97;;;3.40;;
781;SDS011;374;52.568;13.402;2023-02-27T10:55:32;4.40;;;3.73;;
781;SDS011;374;52.568;13.402;2023-02-27T10:58:00;5.00;;;3.13;;
781;SDS011;374;52.568;13.402;2023-02-27T11:02:53;4.50;;;3.23;;
781;SDS011;374;52.568;13.402;2023-02-27T11:05:32;5.83;;;2.60;;
781;SDS011;374;52.568;13.402;2023-02-27T11:08:12;4.40;;;3.10;;
781;SDS011;374;52.568;13.402;2023-02-27T11:10:55;4.33;;;2.80;;
781;SDS011;374;52.568;13.402;2023-02-27T11:13:21;3.20;;;2.73;;
781;SDS011;374;52.568;13.402;2023-02-27T11:18:40;5.23;;;2.50;;
781;SDS011;374;52.568;13.402;2023-02-27T11:21:18;2.53;;;2.00;;
781;SDS011;374;52.568;13.402;2023-02-27T11:23:56;5.43;;;2.63;;
781;SDS011;374;52.568;13.402;2023-02-27T11:31:30;1.50;;;1.20;;
781;SDS011;374;52.568;13.402;2023-02-27T11:33:57;2.13;;;1.80;;
781;SDS011;374;52.568;13.402;2023-02-27T11:36:41;2.23;;;1.67;;
781;SDS011;374;52.568;13.402;2023-02-27T11:39:16;1.67;;;1.57;;
781;SDS011;374;52.568;13.402;2023-02-27T11:41:54;4.60;;;2.10;;
781;SDS011;374;52.568;13.402;2023-02-27T11:44:26;7.03;;;1.97;;
781;SDS011;374;52.568;13.402;2023-02-27T11:47:06;2.30;;;2.10;;
781;SDS011;374;52.568;13.402;2023-02-27T11:49:36;3.30;;;1.80;;
781;SDS011;374;52.568;13.402;2023-02-27T11:54:41;1.80;;;1.70;;
781;SDS011;374;52.568;13.402;2023-02-27T11:57:23;1.83;;;1.67;;
781;SDS011;374;52.568;13.402;2023-02-27T11:59:54;2.33;;;2.10;;
781;SDS011;374;52.568;13.402;2023-02-27T12:08:00;1.43;;;1.23;;
781;SDS011;374;52.568;13.402;2023-02-27T12:13:22;1.70;;;1.60;;
781;SDS011;374;52.568;13.402;2023-02-27T12:15:53;1.40;;;1.30;;
781;SDS011;374;52.568;13.402;2023-02-27T12:18:33;1.80;;;1.23;;
781;SDS011;374;52.568;13.402;2023-02-27T12:21:11;2.03;;;1.83;;
781;SDS011;374;52.568;13.402;2023-02-27T12:24:08;3.13;;;1.40;;
781;SDS011;374;52.568;13.402;2023-02-27T12:26:41;2.77;;;1.60;;
781;SDS011;374;52.568;13.402;2023-02-27T12:29:20;1.03;;;1.03;;
781;SDS011;374;52.568;13.402;2023-02-27T12:34:53;1.00;;;0.80;;
781;SDS011;374;52.568;13.402;2023-02-27T12:37:29;3.27;;;1.20;;
781;SDS011;374;52.568;13.402;2023-02-27T12:39:58;0.80;;;0.80;;
781;SDS011;374;52.568;13.402;2023-02-27T12:50:55;1.17;;;1.00;;
781;SDS011;374;52.568;13.402;2023-02-27T12:56:13;1.30;;;1.20;;
781;SDS011;374;52.568;13.402;2023-02-27T12:59:00;1.77;;;1.67;;
781;SDS011;374;52.568;13.402;2023-02-27T13:01:47;0.80;;;0.80;;
781;SDS011;374;52.568;13.402;2023-02-27T13:04:25;2.10;;;1.90;;
781;SDS011;374;52.568;13.402;2023-02-27T13:07:22;1.23;;;0.80;;
781;SDS011;374;52.568;13.402;2023-02-27T13:09:51;2.10;;;1.20;;
781;SDS011;374;52.568;13.402;2023-02-27T13:12:24;1.20;;;1.10;;
781;SDS011;374;52.568;13.402;2023-02-27T13:18:18;1.00;;;0.90;;
781;SDS011;374;52.568;13.402;2023-02-27T13:21:06;1.73;;;1.47;;
781;SDS011;374;52.568;13.402;2023-02-27T13:23:51;2.80;;;0.70;;
781;SDS011;374;52.568;13.402;2023-02-27T13:26:44;1.17;;;0.90;;
781;SDS011;374;52.568;13.402;2023-02-27T13:29:14;1.57;;;0.80;;
781;SDS011;374;52.568;13.402;2023-02-27T13:31:46;1.03;;;1.03;;
781;SDS011;374;52.568;13.402;2023-02-27T13:34:33;2.17;;;1.20;;
781;SDS011;374;52.568;13.402;2023-02-27T13:37:05;1.90;;;0.80;;
781;SDS011;374;52.568;13.402;2023-02-27T13:44:52;1.67;;;1.00;;
781;SDS011;374;52.568;13.402;2023-02-27T13:49:57;0.83;;;0.77;;
781;SDS011;374;52.568;13.402;2023-02-27T13:52:28;1.47;;;1.00;;
781;SDS011;374;52.568;13.402;2023-02-27T13:54:58;0.80;;;0.80;;
781;SDS011;374;52.568;13.402;2023-02-27T13:57:34;1.37;;;1.07;;
781;SDS011;374;52.568;13.402;2023-02-27T14:00:05;1.33;;;1.23;;
781;SDS011;374;52.568;13.402;2023-02-27T14:02:50;4.13;;;1.40;;
781;SDS011;374;52.568;13.402;2023-02-27T14:05:25;2.60;;;1.27;;
781;SDS011;374;52.568;13.402;2023-02-27T14:10:36;1.83;;;1.50;;
781;SDS011;374;52.568;13.402;2023-02-27T14:13:04;1.10;;;1.00;;
781;SDS011;374;52.568;13.402;2023-02-27T14:15:55;1.10;;;1.00;;
781;SDS011;374;52.568;13.402;2023-02-27T14:24:25;1.63;;;0.97;;
781;SDS011;374;52.568;13.402;2023-02-27T14:27:03;1.20;;;1.10;;
781;SDS011;374;52.568;13.402;2023-02-27T14:29:50;1.30;;;1.20;;
781;SDS011;374;52.568;13.402;2023-02-27T14:32:23;1.10;;;1.00;;
781;SDS011;374;52.568;13.402;2023-02-27T14:34:50;1.37;;;1.27;;
781;SDS011;374;52.568;13.402;2023-02-27T14:37:18;1.53;;;1.20;;
781;SDS011;374;52.568;13.402;2023-02-27T14:39:49;1.43;;;1.20;;
781;SDS011;374;52.568;13.402;2023-02-27T14:42:33;1.00;;;0.90;;
781;SDS011;374;52.568;13.402;2023-02-27T14:45:21;0.80;;;0.80;;
781;SDS011;374;52.568;13.402;2023-02-27T14:47:47;1.50;;;1.27;;
781;SDS011;374;52.568;13.402;2023-02-27T14:50:22;1.70;;;1.40;;
781;SDS011;374;52.568;13.402;2023-02-27T14:52:53;3.90;;;1.23;;
781;SDS011;374;52.568;13.402;2023-02-27T14:55:20;2.10;;;1.13;;
781;SDS011;374;52.568;13.402;2023-02-27T14:57:52;1.20;;;1.10;;
781;SDS011;374;52.568;13.402;2023-02-27T15:00:29;1.47;;;1.37;;
781;SDS011;374;52.568;13.402;2023-02-27T15:03:08;1.40;;;1.03;;
781;SDS011;374;52.568;13.402;2023-02-27T15:05:47;1.60;;;1.50;;
781;SDS011;374;52.568;13.402;2023-02-27T15:08:19;1.87;;;1.30;;
781;SDS011;374;52.568;13.402;2023-02-27T15:10:47;2.93;;;1.30;;
781;SDS011;374;52.568;13.402;2023-02-27T15:13:24;1.07;;;1.07;;
781;SDS011;374;52.568;13.402;2023-02-27T15:15:55;1.77;;;1.37;;
781;SDS011;374;52.568;13.402;2023-02-27T15:18:44;1.43;;;1.33;;
781;SDS011;374;52.568;13.402;2023-02-27T15:21:14;1.97;;;1.30;;
781;SDS011;374;52.568;13.402;2023-02-27T15:23:39;1.53;;;1.40;;
781;SDS011;374;52.568;13.402;2023-02-27T15:26:05;1.37;;;1.27;;
781;SDS011;374;52.568;13.402;2023-02-27T15:28:34;3.27;;;1.30;;
781;SDS011;374;52.568;13.402;2023-02-27T15:31:02;2.93;;;1.07;;
781;SDS011;374;52.568;13.402;2023-02-27T15:33:29;2.07;;;1.13;;
781;SDS011;374;52.568;13.402;2023-02-27T15:35:56;2.40;;;1.83;;
781;SDS011;374;52.568;13.402;2023-02-27T15:38:27;1.60;;;1.30;;
781;SDS011;374;52.568;13.402;2023-02-27T15:40:58;2.30;;;1.47;;
781;SDS011;374;52.568;13.402;2023-02-27T15:43:25;2.77;;;1.70;;
781;SDS011;374;52.568;13.402;2023-02-27T15:45:52;3.50;;;2.03;;
781;SDS011;374;52.568;13.402;2023-02-27T15:48:18;3.17;;;1.90;;
781;SDS011;374;52.568;13.402;2023-02-27T15:50:45;4.63;;;2.20;;
781;SDS011;374;52.568;13.402;2023-02-27T15:53:19;3.03;;;1.97;;
781;SDS011;374;52.568;13.402;2023-02-27T15:55:48;1.97;;;1.47;;
781;SDS011;374;52.568;13.402;2023-02-27T16:00:45;4.40;;;1.80;;
781;SDS011;374;52.568;13.402;2023-02-27T16:03:12;6.53;;;2.00;;
781;SDS011;374;52.568;13.402;2023-02-27T16:05:48;3.70;;;1.70;;
781;SDS011;374;52.568;13.402;2023-02-27T16:08:15;1.97;;;1.87;;
781;SDS011;374;52.568;13.402;2023-02-27T16:10:43;2.80;;;2.60;;
781;SDS011;374;52.568;13.402;2023-02-27T16:16:27;6.63;;;1.83;;
781;SDS011;374;52.568;13.402;2023-02-27T16:19:23;2.37;;;1.47;;
781;SDS011;374;52.568;13.402;2023-02-27T16:24:35;2.20;;;1.60;;
781;SDS011;374;52.568;13.402;2023-02-27T16:27:01;2.73;;;2.20;;
781;SDS011;374;52.568;13.402;2023-02-27T16:29:33;3.27;;;2.20;;
781;SDS011;374;52.568;13.402;2023-02-27T16:32:03;4.40;;;3.80;;
781;SDS011;374;52.568;13.402;2023-02-27T16:34:33;4.90;;;4.00;;
781;SDS011;374;52.568;13.402;2023-02-27T16:37:01;2.47;;;2.20;;
781;SDS011;374;52.568;13.402;2023-02-27T16:39:28;3.50;;;1.83;;
781;SDS011;374;52.568;13.402;2023-02-27T16:41:55;3.50;;;1.97;;
781;SDS011;374;52.568;13.402;2023-02-27T16:44:22;3.37;;;2.53;;
781;SDS011;374;52.568;13.402;2023-02-27T16:46:49;5.70;;;2.97;;
781;SDS011;374;52.568;13.402;2023-02-27T16:49:23;4.20;;;3.80;;
781;SDS011;374;52.568;13.402;2023-02-27T16:51:50;4.10;;;3.47;;
781;SDS011;374;52.568;13.402;2023-02-27T16:54:16;3.67;;;2.90;;
781;SDS011;374;52.568;13.402;2023-02-27T16:56:42;3.70;;;2.97;;
781;SDS011;374;52.568;13.402;2023-02-27T16:59:32;3.73;;;3.27;;
781;SDS011;374;52.568;13.402;2023-02-27T17:01:58;5.87;;;3.50;;
781;SDS011;374;52.568;13.402;2023-02-27T17:04:25;5.93;;;3.73;;
781;SDS011;374;52.568;13.402;2023-02-27T17:06:52;4.37;;;3.30;;
781;SDS011;374;52.568;13.402;2023-02-27T17:09:18;5.10;;;3.90;;
781;SDS011;374;52.568;13.402;2023-02-27T17:11:44;4.90;;;4.20;;
781;SDS011;374;52.568;13.402;2023-02-27T17:14:09;5.47;;;4.10;;
781;SDS011;374;52.568;13.402;2023-02-27T17:16:35;4.80;;;3.53;;
781;SDS011;374;52.568;13.402;2023-02-27T17:19:00;7.10;;;3.83;;
781;SDS011;374;52.568;13.402;2023-02-27T17:21:26;8.23;;;3.70;;
781;SDS011;374;52.568;13.402;2023-02-27T17:23:52;8.43;;;7.17;;
781;SDS011;374;52.568;13.402;2023-02-27T17:26:17;8.60;;;7.00;;
781;SDS011;374;52.568;13.402;2023-02-27T17:28:42;6.23;;;5.60;;
781;SDS011;374;52.568;13.402;2023-02-27T17:31:08;6.00;;;4.87;;
781;SDS011;374;52.568;13.402;2023-02-27T17:33:39;8.10;;;5.20;;
781;SDS011;374;52.568;13.402;2023-02-27T17:36:05;6.53;;;5.13;;
781;SDS011;374;52.568;13.402;2023-02-27T17:38:32;9.50;;;5.43;;
781;SDS011;374;52.568;13.402;2023-02-27T17:40:58;7.83;;;5.90;;
781;SDS011;374;52.568;13.402;2023-02-27T17:43:29;8.80;;;6.10;;
781;SDS011;374;52.568;13.402;2023-02-27T17:45:55;7.00;;;5.67;;
781;SDS011;374;52.568;13.402;2023-02-27T17:48:21;5.90;;;5.03;;
781;SDS011;374;52.568;13.402;2023-02-27T17:50:47;8.50;;;6.47;;
781;SDS011;374;52.568;13.402;2023-02-27T17:53:12;9.93;;;6.77;;
781;SDS011;374;52.568;13.402;2023-02-27T17:55:39;6.30;;;5.70;;
781;SDS011;374;52.568;13.402;2023-02-27T17:58:05;7.80;;;6.70;;
781;SDS011;374;52.568;13.402;2023-02-27T18:00:31;8.60;;;6.40;;
781;SDS011;374;52.568;13.402;2023-02-27T18:02:57;8.13;;;6.27;;
781;SDS011;374;52.568;13.402;2023-02-27T18:05:25;10.20;;;6.50;;